createdAt,value
2023-04-12T00:01:30.772Z,30.00
2023-04-12T00:03:59.420Z,30.00
2023-04-12T00:06:32.771Z,30.00
2023-04-12T00:09:02.100Z,30.00
2023-04-12T00:11:29.705Z,30.10
2023-04-12T00:13:58.536Z,30.10
2023-04-12T00:16:26.628Z,30.10
2023-04-12T00:18:57.753Z,30.10
2023-04-12T00:21:29.276Z,30.10
2023-04-12T00:23:57.167Z,30.10
2023-04-12T00:26:28.659Z,30.20
2023-04-12T00:28:57.848Z,30.20
2023-04-12T00:31:26.044Z,30.20
2023-04-12T00:33:55.113Z,30.20
2023-04-12T00:36:23.116Z,30.30
2023-04-12T00:38:50.780Z,30.30
2023-04-12T00:41:18.472Z,30.40
2023-04-12T00:43:48.363Z,30.40
2023-04-12T00:46:17.789Z,30.40
2023-04-12T00:48:48.375Z,30.50
2023-04-12T00:51:18.464Z,30.50
2023-04-12T00:53:46.773Z,30.60
2023-04-12T00:56:14.654Z,30.60
2023-04-12T00:58:42.247Z,30.70
2023-04-12T01:01:14.177Z,30.80
2023-04-12T01:03:43.655Z,30.80
2023-04-12T01:06:38.216Z,30.90
2023-04-12T01:09:17.601Z,30.90
2023-04-12T01:11:52.390Z,31.00
2023-04-12T01:14:24.085Z,31.00
2023-04-12T01:16:54.772Z,31.10
2023-04-12T01:23:15.055Z,31.20
2023-04-12T01:25:48.591Z,31.20
2023-04-12T01:28:21.344Z,31.30
2023-04-12T01:30:51.957Z,31.30
2023-04-12T01:33:19.989Z,31.40
2023-04-12T01:35:49.493Z,31.40
2023-04-12T01:38:17.234Z,31.40
2023-04-12T01:40:44.921Z,31.50
2023-04-12T01:43:17.083Z,31.40
2023-04-12T01:45:44.911Z,31.40
2023-04-12T01:48:13.622Z,31.50
2023-04-12T01:51:00.114Z,31.50
2023-04-12T01:53:41.293Z,31.60
2023-04-12T01:56:23.405Z,31.60
2023-04-12T01:58:52.218Z,31.70
2023-04-12T02:01:20.231Z,31.70
2023-04-12T02:03:51.768Z,31.80
2023-04-12T02:06:22.562Z,31.80
2023-04-12T02:08:50.546Z,31.90
2023-04-12T02:11:18.658Z,31.90
2023-04-12T02:13:46.576Z,32.00
2023-04-12T02:16:14.659Z,32.00
2023-04-12T02:18:42.564Z,32.10
2023-04-12T02:21:11.806Z,32.10
2023-04-12T02:23:39.933Z,32.20
2023-04-12T02:26:08.782Z,32.20
2023-04-12T02:28:38.307Z,32.30
2023-04-12T02:31:07.444Z,32.30
2023-04-12T02:33:35.669Z,32.40
2023-04-12T02:36:03.726Z,32.50
2023-04-12T02:38:31.714Z,32.50
2023-04-12T02:41:00.474Z,32.60
2023-04-12T02:43:28.287Z,32.60
2023-04-12T02:45:56.847Z,32.70
2023-04-12T02:48:25.120Z,32.70
2023-04-12T02:50:54.505Z,32.80
2023-04-12T02:53:23.228Z,32.80
2023-04-12T02:55:51.258Z,32.90
2023-04-12T02:58:19.928Z,33.00
2023-04-12T03:00:50.810Z,33.10
2023-04-12T03:03:18.889Z,33.20
2023-04-12T03:05:48.291Z,33.20
2023-04-12T03:08:17.229Z,33.30
2023-04-12T03:10:48.413Z,33.30
2023-04-12T03:13:21.486Z,33.30
2023-04-12T03:16:04.117Z,33.40
2023-04-12T03:18:34.127Z,33.50
2023-04-12T03:21:03.051Z,33.60
2023-04-12T03:23:32.501Z,33.60
2023-04-12T03:26:00.496Z,33.70
2023-04-12T03:28:31.488Z,33.80
2023-04-12T03:31:02.557Z,33.90
2023-04-12T03:33:30.204Z,33.90
2023-04-12T03:36:09.870Z,33.90
2023-04-12T03:38:45.482Z,34.00
2023-04-12T03:41:14.277Z,34.10
2023-04-12T03:43:44.345Z,34.10
2023-04-12T03:46:38.754Z,34.20
2023-04-12T03:49:06.782Z,34.20
2023-04-12T03:51:37.555Z,34.30
2023-04-12T03:54:06.545Z,34.40
2023-04-12T03:56:37.942Z,34.40
2023-04-12T03:59:07.943Z,34.50
2023-04-12T04:01:36.064Z,34.50
2023-04-12T04:04:04.329Z,34.60
2023-04-12T04:06:44.963Z,34.70
2023-04-12T04:09:27.281Z,34.70
2023-04-12T04:11:54.993Z,34.70
2023-04-12T04:14:22.946Z,34.80
2023-04-12T04:16:50.809Z,34.80
2023-04-12T04:19:18.699Z,34.80
2023-04-12T04:21:46.359Z,34.80
2023-04-12T04:24:14.564Z,34.90
2023-04-12T04:26:43.992Z,34.90
2023-04-12T04:29:12.206Z,35.00
2023-04-12T04:31:39.906Z,35.10
2023-04-12T04:34:09.192Z,35.10
2023-04-12T04:36:38.893Z,35.10
2023-04-12T04:39:59.769Z,35.20
2023-04-12T04:45:15.908Z,35.40
2023-04-12T04:47:45.372Z,35.50
2023-04-12T04:50:14.921Z,35.50
2023-04-12T04:52:56.227Z,35.60
2023-04-12T04:55:26.464Z,35.70
2023-04-12T04:57:54.159Z,35.70
2023-04-12T05:00:24.467Z,35.70
2023-04-12T05:02:55.119Z,35.80
2023-04-12T05:05:28.427Z,35.80
2023-04-12T05:07:56.890Z,35.80
2023-04-12T05:10:27.823Z,35.80
2023-04-12T05:12:56.743Z,35.90
2023-04-12T05:15:25.231Z,35.90
2023-04-12T05:18:16.070Z,35.90
2023-04-12T05:20:44.664Z,36.00
2023-04-12T05:23:16.287Z,36.00
2023-04-12T05:25:52.864Z,36.10
2023-04-12T05:28:21.300Z,36.10
2023-04-12T05:30:49.117Z,36.30
2023-04-12T05:33:20.697Z,36.40
2023-04-12T05:35:49.865Z,36.50
2023-04-12T05:38:17.487Z,36.50
2023-04-12T05:40:46.285Z,36.50
2023-04-12T05:43:14.005Z,36.60
2023-04-12T05:45:43.181Z,36.60
2023-04-12T05:48:15.030Z,36.60
2023-04-12T06:14:39.242Z,37.20
2023-04-12T06:17:06.927Z,37.10
2023-04-12T06:19:34.650Z,37.10
2023-04-12T06:22:02.417Z,37.20
2023-04-12T06:24:32.985Z,37.20
2023-04-12T06:27:01.055Z,37.30
2023-04-12T06:29:32.123Z,37.30
2023-04-12T06:31:59.744Z,37.40
2023-04-12T06:34:27.438Z,37.40
2023-04-12T06:36:55.186Z,37.30
2023-04-12T06:39:24.088Z,37.40
2023-04-12T06:41:51.696Z,37.40
2023-04-12T06:44:19.346Z,37.50
2023-04-12T06:46:48.155Z,37.50
2023-04-12T06:49:15.898Z,37.50
2023-04-12T06:51:43.449Z,37.50
2023-04-12T06:54:11.214Z,37.60
2023-04-12T06:56:39.893Z,37.60
2023-04-12T06:59:10.175Z,37.70
2023-04-12T07:01:37.886Z,37.70
2023-04-12T07:04:05.718Z,37.70
2023-04-12T07:06:33.470Z,37.70
2023-04-12T07:09:01.139Z,37.70
2023-04-12T07:11:32.563Z,37.70
2023-04-12T07:14:04.337Z,37.60
2023-04-12T07:16:32.966Z,37.60
2023-04-12T07:19:03.495Z,37.50
2023-04-12T07:21:34.105Z,37.50
2023-04-12T07:24:02.953Z,37.50
2023-04-12T07:26:31.678Z,37.50
2023-04-12T07:28:59.732Z,37.50
2023-04-12T07:31:30.697Z,37.60
2023-04-12T07:33:58.571Z,37.60
2023-04-12T07:36:28.669Z,37.70
2023-04-12T07:38:57.719Z,37.80
2023-04-12T07:41:26.369Z,37.90
2023-04-12T07:43:53.996Z,37.90
2023-04-12T07:46:22.425Z,37.90
2023-04-12T07:48:50.244Z,37.80
2023-04-12T07:51:17.869Z,37.80
2023-04-12T07:53:48.682Z,37.90
2023-04-12T07:56:18.839Z,37.90
2023-04-12T07:58:46.432Z,37.90
2023-04-12T08:01:17.524Z,37.90
2023-04-12T08:03:46.062Z,37.90
2023-04-12T08:06:15.189Z,37.90
2023-04-12T08:08:42.892Z,37.90
2023-04-12T08:11:10.803Z,38.00
2023-04-12T08:13:38.590Z,38.00
2023-04-12T08:16:08.878Z,37.90
2023-04-12T08:18:36.646Z,37.90
2023-04-12T08:21:04.300Z,37.90
2023-04-12T08:23:31.869Z,37.90
2023-04-12T08:26:04.088Z,37.90
2023-04-12T08:28:32.942Z,37.90
2023-04-12T08:31:00.734Z,37.90
2023-04-12T08:33:28.323Z,37.90
2023-04-12T08:35:56.304Z,37.90
2023-04-12T08:38:37.247Z,37.90
2023-04-12T08:41:09.453Z,37.90
2023-04-12T08:43:45.192Z,37.80
2023-04-12T08:46:17.254Z,37.80
2023-04-12T08:50:25.260Z,37.80
2023-04-12T08:52:29.706Z,37.70
2023-04-12T08:55:06.065Z,37.70
2023-04-12T08:58:02.880Z,37.70
2023-04-12T09:03:24.985Z,37.70
2023-04-12T09:05:53.782Z,37.70
2023-04-12T09:08:28.073Z,37.70
2023-04-12T09:11:31.263Z,37.70
2023-04-12T09:13:50.051Z,37.70
2023-04-12T09:16:20.379Z,37.70
2023-04-12T09:18:52.700Z,37.60
2023-04-12T09:21:23.127Z,37.60
2023-04-12T09:24:02.384Z,37.60
2023-04-12T09:26:47.592Z,37.60
2023-04-12T09:32:54.720Z,37.60
2023-04-12T09:36:03.436Z,37.10
2023-04-12T09:38:42.095Z,37.60
2023-04-12T09:41:38.586Z,37.60
2023-04-12T09:44:05.937Z,37.60
2023-04-12T09:46:34.250Z,37.60
2023-04-12T09:49:03.829Z,37.60
2023-04-12T09:51:33.068Z,37.60
2023-04-12T09:54:05.037Z,37.60
2023-04-12T09:56:35.219Z,37.60
2023-04-12T09:59:04.762Z,37.60
2023-04-12T10:01:46.684Z,37.50
2023-04-12T10:04:15.003Z,37.50
2023-04-12T10:06:42.774Z,37.50
2023-04-12T10:09:10.807Z,37.50
2023-04-12T10:11:42.074Z,37.40
2023-04-12T10:14:10.533Z,37.40
2023-04-12T10:16:41.566Z,37.40
2023-04-12T10:19:10.672Z,37.40
2023-04-12T10:21:38.336Z,37.30
2023-04-12T10:24:08.139Z,37.30
2023-04-12T10:26:35.856Z,37.30
2023-04-12T10:29:22.128Z,37.30
2023-04-12T10:31:50.460Z,37.20
2023-04-12T10:34:18.884Z,37.20
2023-04-12T10:36:56.852Z,37.20
2023-04-12T10:42:19.034Z,37.10
2023-04-12T10:44:47.045Z,37.00
2023-04-12T10:47:15.527Z,37.00
2023-04-12T10:50:02.939Z,36.90
2023-04-12T10:52:31.020Z,36.90
2023-04-12T10:54:58.884Z,36.80
2023-04-12T10:57:43.866Z,36.80
2023-04-12T11:00:12.567Z,36.70
2023-04-12T11:03:00.378Z,36.70
2023-04-12T11:05:28.441Z,36.70
2023-04-12T11:07:56.241Z,36.50
2023-04-12T11:10:26.341Z,36.50
2023-04-12T11:12:58.345Z,36.40
2023-04-12T11:15:31.514Z,36.40
2023-04-12T11:18:01.180Z,36.30
2023-04-12T11:20:28.866Z,36.20
2023-04-12T11:22:57.309Z,36.10
2023-04-12T11:25:24.964Z,36.10
2023-04-12T11:27:55.307Z,36.00
2023-04-12T11:30:23.835Z,35.90
2023-04-12T11:32:51.538Z,35.90
2023-04-12T11:35:24.474Z,35.80
2023-04-12T11:37:52.103Z,35.80
2023-04-12T11:40:23.025Z,35.70
2023-04-12T11:42:50.949Z,35.70
2023-04-12T11:45:21.808Z,35.70
2023-04-12T11:47:49.582Z,35.60
2023-04-12T11:50:28.396Z,35.60
2023-04-12T11:52:56.029Z,35.50
2023-04-12T11:55:23.705Z,35.50
2023-04-12T11:57:56.181Z,35.40
2023-04-12T12:00:26.126Z,35.40
2023-04-12T12:03:06.579Z,35.40
2023-04-12T12:05:38.971Z,35.30
2023-04-12T12:08:08.051Z,35.30
2023-04-12T12:10:49.129Z,35.30
2023-04-12T12:13:24.287Z,35.30
2023-04-12T12:15:55.945Z,35.20
2023-04-12T12:18:29.082Z,35.20
2023-04-12T12:20:56.810Z,35.20
2023-04-12T12:23:28.334Z,35.10
2023-04-12T12:26:10.047Z,35.10
2023-04-12T12:28:49.524Z,35.20
2023-04-12T12:31:19.374Z,35.10
2023-04-12T12:33:47.676Z,35.10
2023-04-12T12:36:18.487Z,35.10
2023-04-12T12:38:46.112Z,35.00
2023-04-12T12:41:17.112Z,35.00
2023-04-12T12:43:45.948Z,34.90
2023-04-12T12:46:14.262Z,34.90
2023-04-12T12:48:42.448Z,34.90
2023-04-12T12:51:13.158Z,34.80
2023-04-12T12:53:41.357Z,34.80
2023-04-12T12:56:10.499Z,34.80
2023-04-12T12:58:39.662Z,34.70
2023-04-12T13:01:09.855Z,34.70
2023-04-12T13:03:37.844Z,34.70
2023-04-12T13:06:05.771Z,34.60
2023-04-12T13:08:36.461Z,34.60
2023-04-12T13:11:04.387Z,34.60
2023-04-12T13:13:31.947Z,34.60
2023-04-12T13:15:59.776Z,34.60
2023-04-12T13:18:27.403Z,34.50
2023-04-12T13:20:54.949Z,34.50
2023-04-12T13:23:22.515Z,34.50
2023-04-12T13:25:50.104Z,34.50
2023-04-12T13:28:17.664Z,34.50
2023-04-12T13:30:46.038Z,34.50
2023-04-12T13:33:17.297Z,34.50
2023-04-12T13:35:47.702Z,34.50
2023-04-12T13:38:15.676Z,34.40
2023-04-12T13:40:43.272Z,34.40
2023-04-12T13:43:10.887Z,34.40
2023-04-12T13:45:38.506Z,34.40
2023-04-12T13:48:06.336Z,34.40
2023-04-12T13:50:33.976Z,34.40
2023-04-12T13:53:01.844Z,34.40
2023-04-12T13:55:29.746Z,34.30
2023-04-12T13:57:57.379Z,34.30
2023-04-12T14:00:25.019Z,34.30
2023-04-12T14:02:52.650Z,34.30
2023-04-12T14:05:20.377Z,34.30
2023-04-12T14:07:50.061Z,34.30
2023-04-12T14:10:18.022Z,34.30
2023-04-12T14:12:45.601Z,34.30
2023-04-12T14:15:13.591Z,34.20
2023-04-12T14:17:41.326Z,34.20
2023-04-12T14:20:12.872Z,34.20
2023-04-12T14:22:40.713Z,34.20
2023-04-12T14:25:08.577Z,34.20
2023-04-12T14:27:36.743Z,34.10
2023-04-12T14:30:06.544Z,34.10
2023-04-12T14:32:35.174Z,34.00
2023-04-12T14:35:05.392Z,34.00
2023-04-12T14:37:33.397Z,34.00
2023-04-12T14:40:01.018Z,33.90
2023-04-12T14:42:29.450Z,33.90
2023-04-12T14:44:57.106Z,33.90
2023-04-12T14:47:24.813Z,33.90
2023-04-12T14:49:52.565Z,33.80
2023-04-12T14:52:20.224Z,33.80
2023-04-12T14:54:48.827Z,33.80
2023-04-12T14:57:16.471Z,33.80
2023-04-12T14:59:45.066Z,33.80
2023-04-12T15:02:12.940Z,33.70
2023-04-12T15:04:40.690Z,33.70
2023-04-12T15:07:08.913Z,33.70
2023-04-12T15:09:36.478Z,33.70
2023-04-12T15:12:04.622Z,33.70
2023-04-12T15:14:32.262Z,33.60
2023-04-12T15:16:59.903Z,33.60
2023-04-12T15:19:27.653Z,33.60
2023-04-12T15:21:55.861Z,33.60
2023-04-12T15:24:24.411Z,33.60
2023-04-12T15:26:53.115Z,33.50
2023-04-12T15:29:22.556Z,33.50
2023-04-12T15:31:51.012Z,33.50
2023-04-12T15:34:18.833Z,33.50
2023-04-12T15:36:46.582Z,33.40
2023-04-12T15:39:15.253Z,33.40
2023-04-12T15:41:43.774Z,33.40
2023-04-12T15:44:15.176Z,33.40
2023-04-12T15:46:43.156Z,33.30
2023-04-12T15:49:11.271Z,33.30
2023-04-12T15:51:38.922Z,33.30
2023-04-12T15:54:06.804Z,33.30
2023-04-12T15:56:35.377Z,33.30
2023-04-12T15:59:03.329Z,33.30
2023-04-12T16:01:30.998Z,33.30
2023-04-12T16:03:58.846Z,33.30
2023-04-12T16:06:26.621Z,33.20
2023-04-12T16:08:54.912Z,33.20
2023-04-12T16:11:24.229Z,33.20
2023-04-12T16:13:52.898Z,33.20
2023-04-12T16:16:21.778Z,33.20
2023-04-12T16:18:49.869Z,33.20
2023-04-12T16:21:20.875Z,33.10
2023-04-12T16:23:49.406Z,33.20
2023-04-12T16:26:23.687Z,33.10
2023-04-12T16:28:54.251Z,33.10
2023-04-12T16:31:23.079Z,33.10
2023-04-12T16:33:51.936Z,33.10
2023-04-12T16:36:19.727Z,33.00
2023-04-12T16:38:47.636Z,33.00
2023-04-12T16:41:17.385Z,33.00
2023-04-12T16:43:45.618Z,33.00
2023-04-12T16:46:13.823Z,33.00
2023-04-12T16:48:42.391Z,33.00
2023-04-12T16:51:10.945Z,33.00
2023-04-12T16:53:38.811Z,33.00
2023-04-12T16:56:06.798Z,33.00
2023-04-12T16:58:34.384Z,33.00
2023-04-12T17:01:02.132Z,32.90
2023-04-12T17:03:30.665Z,32.90
2023-04-12T17:05:59.292Z,32.90
2023-04-12T17:08:26.878Z,32.90
2023-04-12T17:10:54.821Z,32.90
2023-04-12T17:13:22.469Z,32.80
2023-04-12T17:15:50.122Z,32.90
2023-04-12T17:18:18.068Z,32.80
2023-04-12T17:20:46.036Z,32.90
2023-04-12T17:23:13.788Z,32.90
2023-04-12T17:25:42.039Z,32.90
2023-04-12T17:28:09.808Z,32.90
2023-04-12T17:30:37.710Z,32.90
2023-04-12T17:33:07.583Z,32.90
2023-04-12T17:35:35.542Z,32.80
2023-04-12T17:38:03.197Z,32.80
2023-04-12T17:40:30.834Z,32.80
2023-04-12T17:42:58.423Z,32.80
2023-04-12T17:45:26.132Z,32.80
2023-04-12T17:47:54.888Z,32.70
2023-04-12T17:50:23.562Z,32.80
2023-04-12T17:52:51.168Z,32.70
2023-04-12T17:55:23.930Z,32.70
2023-04-12T17:57:51.746Z,32.70
2023-04-12T18:00:19.800Z,32.70
2023-04-12T18:02:47.736Z,32.60
2023-04-12T18:05:15.676Z,32.60
2023-04-12T18:07:43.283Z,32.60
2023-04-12T18:10:12.994Z,32.60
2023-04-12T18:12:41.169Z,32.60
2023-04-12T18:15:09.175Z,32.60
2023-04-12T18:17:37.099Z,32.50
2023-04-12T18:20:09.942Z,32.50
2023-04-12T18:22:38.406Z,32.50
2023-04-12T18:25:07.128Z,32.50
2023-04-12T18:27:34.724Z,32.50
2023-04-12T18:30:03.640Z,32.40
2023-04-12T18:32:31.805Z,32.40
2023-04-12T18:34:59.412Z,32.40
2023-04-12T18:37:27.974Z,32.40
2023-04-12T18:39:55.679Z,32.30
2023-04-12T18:42:23.352Z,32.30
2023-04-12T18:44:51.559Z,32.30
2023-04-12T18:47:19.389Z,32.20
2023-04-12T18:49:47.149Z,32.20
2023-04-12T18:52:14.774Z,32.20
2023-04-12T18:54:42.393Z,32.20
2023-04-12T18:57:10.045Z,32.20
2023-04-12T18:59:37.722Z,32.10
2023-04-12T19:02:06.084Z,32.10
2023-04-12T19:04:33.665Z,32.10
2023-04-12T19:07:01.244Z,32.10
2023-04-12T19:09:29.251Z,32.10
2023-04-12T19:11:57.205Z,32.10
2023-04-12T19:14:25.888Z,32.00
2023-04-12T19:16:53.498Z,32.00
2023-04-12T19:19:21.126Z,32.00
2023-04-12T19:21:48.819Z,32.00
2023-04-12T19:24:16.482Z,32.00
2023-04-12T19:26:47.472Z,32.00
2023-04-12T19:29:18.970Z,31.90
2023-04-12T19:31:49.977Z,31.90
2023-04-12T19:34:18.276Z,31.90
2023-04-12T19:36:46.032Z,31.90
2023-04-12T19:39:13.752Z,31.90
2023-04-12T19:41:41.744Z,31.90
2023-04-12T19:44:09.321Z,31.90
2023-04-12T19:46:39.100Z,31.90
2023-04-12T19:49:06.988Z,31.80
2023-04-12T19:51:34.863Z,31.80
2023-04-12T19:54:03.053Z,31.80
2023-04-12T19:56:31.749Z,31.80
2023-04-12T19:59:00.267Z,31.80
2023-04-12T20:01:28.199Z,31.80
2023-04-12T20:03:55.918Z,31.70
2023-04-12T20:06:23.572Z,31.70
2023-04-12T20:08:51.498Z,31.70
2023-04-12T20:11:19.084Z,31.70
2023-04-12T20:13:47.715Z,31.70
2023-04-12T20:16:16.899Z,31.70
2023-04-12T20:18:45.000Z,31.70
2023-04-12T20:21:12.627Z,31.60
2023-04-12T20:23:40.328Z,31.60
2023-04-12T20:26:09.002Z,31.60
2023-04-12T20:28:38.636Z,31.50
2023-04-12T20:31:06.313Z,31.50
2023-04-12T20:33:33.878Z,31.40
2023-04-12T20:36:01.561Z,31.40
2023-04-12T20:38:30.956Z,31.40
2023-04-12T20:40:58.654Z,31.30
2023-04-12T20:43:26.541Z,31.30
2023-04-12T20:45:54.248Z,31.30
2023-04-12T20:48:22.197Z,31.30
2023-04-12T20:50:50.565Z,31.30
2023-04-12T20:53:18.374Z,31.20
2023-04-12T20:55:45.964Z,31.20
2023-04-12T20:58:14.599Z,31.20
2023-04-12T21:00:42.233Z,31.10
2023-04-12T21:03:11.281Z,31.10
2023-04-12T21:05:38.934Z,31.10
2023-04-12T21:08:07.797Z,31.10
2023-04-12T21:10:35.449Z,31.10
2023-04-12T21:13:03.317Z,31.10
2023-04-12T21:15:32.079Z,31.00
2023-04-12T21:17:59.663Z,31.00
2023-04-12T21:20:27.608Z,31.00
2023-04-12T21:22:55.102Z,31.00
2023-04-12T21:25:23.941Z,31.00
2023-04-12T21:27:51.593Z,31.00
2023-04-12T21:30:19.450Z,31.00
2023-04-12T21:32:47.110Z,31.00
2023-04-12T21:35:16.572Z,31.00
2023-04-12T21:37:44.922Z,30.90
2023-04-12T21:40:13.573Z,30.90
2023-04-12T21:42:41.408Z,30.90
2023-04-12T21:45:09.905Z,30.90
2023-04-12T21:47:39.620Z,30.90
2023-04-12T21:50:08.091Z,30.90
2023-04-12T21:52:35.705Z,30.80
2023-04-12T21:55:05.127Z,30.80
2023-04-12T21:57:33.160Z,30.80
2023-04-12T22:00:00.889Z,30.80
2023-04-12T22:02:28.621Z,30.80
2023-04-12T22:04:56.565Z,30.80
2023-04-12T22:07:24.080Z,30.80
2023-04-12T22:09:53.780Z,30.80
2023-04-12T22:12:22.086Z,30.80
2023-04-12T22:14:50.099Z,30.70
2023-04-12T22:17:18.450Z,30.70
2023-04-12T22:19:46.258Z,30.70
2023-04-12T22:22:15.631Z,30.70
2023-04-12T22:24:45.098Z,30.70
2023-04-12T22:27:12.639Z,30.70
2023-04-12T22:29:40.361Z,30.60
2023-04-12T22:32:09.077Z,30.60
2023-04-12T22:34:39.552Z,30.60
2023-04-12T22:37:08.744Z,30.60
2023-04-12T22:39:36.752Z,30.60
2023-04-12T22:42:04.366Z,30.60
2023-04-12T22:44:38.348Z,30.60
2023-04-12T22:47:09.096Z,30.60
2023-04-12T22:49:45.633Z,30.50
2023-04-12T22:52:13.902Z,30.50
2023-04-12T22:54:41.473Z,30.50
2023-04-12T22:57:08.975Z,30.50
2023-04-12T22:59:36.527Z,30.50
2023-04-12T23:02:04.298Z,30.50
2023-04-12T23:04:31.940Z,30.40
2023-04-12T23:07:00.355Z,30.50
2023-04-12T23:09:28.928Z,30.50
2023-04-12T23:11:56.512Z,30.50
2023-04-12T23:14:24.611Z,30.50
2023-04-12T23:16:52.125Z,30.40
2023-04-12T23:19:20.743Z,30.40
2023-04-12T23:21:48.317Z,30.40
2023-04-12T23:24:16.782Z,30.40
2023-04-12T23:26:47.471Z,30.40
2023-04-12T23:29:15.030Z,30.40
2023-04-12T23:31:42.874Z,30.40
2023-04-12T23:34:10.440Z,30.40
2023-04-12T23:36:38.222Z,30.40
2023-04-12T23:39:09.398Z,30.40
2023-04-12T23:41:36.998Z,30.40
2023-04-12T23:44:04.613Z,30.40
2023-04-12T23:46:32.378Z,30.40
2023-04-12T23:48:59.939Z,30.40
2023-04-12T23:51:27.561Z,30.50
2023-04-12T23:53:55.142Z,30.50
2023-04-12T23:56:22.710Z,30.50
2023-04-12T23:58:50.264Z,30.50
